createdAt,value
2018-10-05T00:01:16.900Z,67.76
2018-10-05T00:03:46.837Z,67.65
2018-10-05T00:06:16.785Z,68.28
2018-10-05T00:08:46.742Z,67.41
2018-10-05T00:11:16.692Z,67.69
2018-10-05T00:13:46.608Z,67.37
2018-10-05T00:16:16.543Z,67.24
2018-10-05T00:18:46.447Z,67.50
2018-10-05T00:21:16.433Z,67.66
2018-10-05T00:23:46.397Z,67.26
2018-10-05T00:26:16.369Z,67.47
2018-10-05T00:28:46.315Z,67.48
2018-10-05T00:31:16.239Z,67.49
2018-10-05T00:33:46.183Z,67.53
2018-10-05T00:36:16.168Z,67.56
2018-10-05T00:38:46.117Z,67.26
2018-10-05T00:41:16.089Z,67.51
2018-10-05T00:43:45.985Z,67.67
2018-10-05T00:46:15.944Z,67.35
2018-10-05T00:48:45.914Z,67.38
2018-10-05T00:51:15.801Z,67.32
2018-10-05T00:53:45.755Z,67.31
2018-10-05T00:56:15.724Z,67.57
2018-10-05T00:58:45.598Z,67.27
2018-10-05T01:01:15.559Z,67.06
2018-10-05T01:03:45.551Z,67.15
2018-10-05T01:06:15.527Z,67.35
2018-10-05T01:08:45.441Z,67.28
2018-10-05T01:11:15.454Z,67.56
2018-10-05T01:13:45.318Z,67.29
2018-10-05T01:16:15.204Z,67.49
2018-10-05T01:18:45.133Z,67.04
2018-10-05T01:21:15.123Z,67.28
2018-10-05T01:23:45.079Z,67.05
2018-10-05T01:26:15.056Z,67.41
2018-10-05T01:28:45.112Z,67.16
2018-10-05T01:31:15.007Z,67.16
2018-10-05T01:33:44.970Z,67.38
2018-10-05T01:36:14.864Z,67.49
2018-10-05T01:38:44.823Z,67.49
2018-10-05T01:41:14.710Z,67.45
2018-10-05T01:43:44.668Z,67.71
2018-10-05T01:46:14.596Z,67.37
2018-10-05T01:48:44.602Z,67.71
2018-10-05T01:51:14.469Z,67.83
2018-10-05T01:53:44.449Z,68.01
2018-10-05T01:56:14.454Z,67.85
2018-10-05T01:58:44.379Z,68.00
2018-10-05T02:01:14.312Z,68.08
2018-10-05T02:03:44.276Z,68.03
2018-10-05T02:06:14.291Z,67.81
2018-10-05T02:08:44.248Z,67.72
2018-10-05T02:11:14.123Z,67.67
2018-10-05T02:13:44.089Z,68.03
2018-10-05T02:16:13.963Z,67.59
2018-10-05T02:18:43.935Z,68.02
2018-10-05T02:21:13.895Z,67.83
2018-10-05T02:23:43.873Z,67.57
2018-10-05T02:26:13.790Z,67.66
2018-10-05T02:28:43.720Z,67.70
2018-10-05T02:31:13.615Z,67.69
2018-10-05T02:33:43.596Z,67.74
2018-10-05T02:36:13.540Z,67.70
2018-10-05T02:38:43.470Z,67.61
2018-10-05T02:41:13.444Z,67.82
2018-10-05T02:43:43.334Z,67.70
2018-10-05T02:46:13.250Z,67.67
2018-10-05T02:48:43.243Z,67.65
2018-10-05T02:51:13.189Z,67.85
2018-10-05T02:53:43.103Z,67.68
2018-10-05T02:56:13.080Z,67.57
2018-10-05T02:58:43.038Z,67.56
2018-10-05T03:01:29.436Z,67.24
2018-10-05T03:03:59.371Z,67.63
2018-10-05T03:06:29.338Z,67.56
2018-10-05T03:08:59.312Z,67.34
2018-10-05T03:11:29.190Z,67.19
2018-10-05T03:13:59.142Z,67.20
2018-10-05T03:16:29.159Z,67.23
2018-10-05T03:18:59.118Z,66.84
2018-10-05T03:21:29.014Z,67.02
2018-10-05T03:23:58.948Z,67.12
2018-10-05T03:26:28.926Z,66.85
2018-10-05T03:28:58.924Z,67.25
2018-10-05T03:31:28.936Z,67.44
2018-10-05T03:33:58.875Z,66.97
2018-10-05T03:36:28.750Z,67.55
2018-10-05T03:38:58.690Z,67.26
2018-10-05T03:41:28.651Z,67.11
2018-10-05T03:43:58.568Z,67.30
2018-10-05T03:46:28.530Z,67.16
2018-10-05T03:48:58.460Z,67.19
2018-10-05T03:51:28.431Z,67.53
2018-10-05T03:53:58.414Z,67.25
2018-10-05T03:56:28.350Z,67.55
2018-10-05T03:58:58.328Z,66.93
2018-10-05T04:01:28.242Z,66.97
2018-10-05T04:03:58.209Z,67.02
2018-10-05T04:06:28.116Z,67.50
2018-10-05T04:08:58.076Z,67.62
2018-10-05T04:11:28.042Z,67.30
2018-10-05T04:13:58.006Z,67.36
2018-10-05T04:16:27.925Z,67.60
2018-10-05T04:18:57.903Z,67.18
2018-10-05T04:21:27.879Z,67.16
2018-10-05T04:23:57.882Z,67.80
2018-10-05T04:26:27.737Z,67.60
2018-10-05T04:28:57.698Z,67.23
2018-10-05T04:31:27.665Z,67.66
2018-10-05T04:33:57.602Z,67.18
2018-10-05T04:36:27.590Z,67.41
2018-10-05T04:38:57.550Z,67.27
2018-10-05T04:41:27.480Z,67.38
2018-10-05T04:43:57.399Z,67.16
2018-10-05T04:46:27.368Z,67.22
2018-10-05T04:48:57.332Z,67.50
2018-10-05T04:51:27.356Z,67.10
2018-10-05T04:53:57.309Z,66.97
2018-10-05T04:56:27.290Z,67.19
2018-10-05T04:58:58.082Z,67.01
2018-10-05T05:01:28.005Z,67.27
2018-10-05T05:03:57.924Z,66.63
2018-10-05T05:06:27.899Z,67.03
2018-10-05T05:08:57.843Z,66.72
2018-10-05T05:11:27.797Z,66.63
2018-10-05T05:13:57.822Z,66.56
2018-10-05T05:16:27.739Z,66.75
2018-10-05T05:18:57.678Z,66.39
2018-10-05T05:21:27.635Z,66.61
2018-10-05T05:23:57.722Z,66.53
2018-10-05T05:26:27.806Z,66.01
2018-10-05T05:28:57.962Z,65.92
2018-10-05T05:31:27.969Z,66.21
2018-10-05T05:33:58.004Z,66.38
2018-10-05T05:36:28.062Z,65.85
2018-10-05T05:38:58.001Z,65.64
2018-10-05T05:41:28.000Z,65.64
2018-10-05T05:43:57.867Z,66.09
2018-10-05T05:46:27.821Z,65.97
2018-10-05T05:48:57.834Z,65.33
2018-10-05T05:51:27.751Z,66.26
2018-10-05T05:53:57.725Z,65.66
2018-10-05T05:56:27.693Z,65.68
2018-10-05T05:58:57.601Z,65.81
2018-10-05T06:01:27.600Z,65.82
2018-10-05T06:03:57.593Z,65.69
2018-10-05T06:06:27.445Z,65.56
2018-10-05T06:08:57.423Z,66.04
2018-10-05T06:11:27.347Z,65.09
2018-10-05T06:13:57.257Z,65.96
2018-10-05T06:16:27.219Z,65.59
2018-10-05T06:18:57.034Z,65.74
2018-10-05T06:21:27.325Z,65.17
2018-10-05T06:23:57.239Z,65.40
2018-10-05T06:26:27.186Z,64.77
2018-10-05T06:28:57.138Z,64.37
2018-10-05T06:31:27.097Z,64.65
2018-10-05T06:33:56.937Z,64.94
2018-10-05T06:36:26.839Z,64.44
2018-10-05T06:38:56.835Z,64.79
2018-10-05T06:41:26.786Z,64.33
2018-10-05T06:43:56.713Z,64.47
2018-10-05T06:46:26.686Z,64.03
2018-10-05T06:48:56.685Z,63.58
2018-10-05T06:51:26.627Z,63.96
2018-10-05T06:53:56.582Z,64.10
2018-10-05T06:56:26.556Z,63.66
2018-10-05T06:58:56.492Z,63.28
2018-10-05T07:01:26.444Z,62.62
2018-10-05T07:03:56.404Z,63.45
2018-10-05T07:06:26.339Z,62.94
2018-10-05T07:08:56.243Z,62.93
2018-10-05T07:11:26.266Z,62.39
2018-10-05T07:13:56.331Z,62.12
2018-10-05T07:16:26.298Z,61.78
2018-10-05T07:18:56.205Z,61.62
2018-10-05T07:21:26.192Z,61.55
2018-10-05T07:23:56.095Z,61.38
2018-10-05T07:26:26.247Z,61.63
2018-10-05T07:28:56.244Z,60.49
2018-10-05T07:31:26.137Z,60.47
2018-10-05T07:33:55.968Z,60.56
2018-10-05T07:36:25.964Z,60.93
2018-10-05T07:38:55.793Z,60.25
2018-10-05T07:41:25.779Z,60.15
2018-10-05T07:43:55.640Z,59.79
2018-10-05T07:46:25.680Z,59.63
2018-10-05T07:48:55.678Z,57.92
2018-10-05T07:51:25.689Z,58.52
2018-10-05T07:53:55.570Z,57.80
2018-10-05T07:56:25.525Z,57.26
2018-10-05T07:58:55.429Z,57.44
2018-10-05T08:01:25.442Z,57.23
2018-10-05T08:03:55.371Z,57.28
2018-10-05T08:06:25.257Z,56.10
2018-10-05T08:08:55.096Z,57.12
2018-10-05T08:11:24.977Z,56.24
2018-10-05T08:13:54.922Z,56.44
2018-10-05T08:16:24.857Z,55.65
2018-10-05T08:18:54.723Z,55.09
2018-10-05T08:21:24.737Z,54.97
2018-10-05T08:23:54.808Z,55.47
2018-10-05T08:26:24.768Z,55.09
2018-10-05T08:28:54.746Z,54.84
2018-10-05T08:31:24.692Z,54.96
2018-10-05T08:33:54.617Z,53.83
2018-10-05T08:36:24.516Z,54.77
2018-10-05T08:38:54.506Z,54.40
2018-10-05T08:41:24.368Z,54.01
2018-10-05T08:43:54.374Z,52.63
2018-10-05T08:46:24.299Z,53.03
2018-10-05T08:48:54.150Z,52.71
2018-10-05T08:51:24.110Z,52.91
2018-10-05T08:53:54.057Z,52.06
2018-10-05T08:56:23.988Z,52.21
2018-10-05T08:58:53.946Z,51.67
2018-10-05T09:01:23.928Z,51.93
2018-10-05T09:03:53.968Z,51.63
2018-10-05T09:06:23.927Z,51.70
2018-10-05T09:08:53.867Z,51.15
2018-10-05T09:11:23.839Z,50.38
2018-10-05T09:13:53.780Z,49.33
2018-10-05T09:16:23.710Z,49.30
2018-10-05T09:18:53.772Z,48.23
2018-10-05T09:21:23.953Z,48.93
2018-10-05T09:23:54.070Z,48.60
2018-10-05T09:26:24.708Z,47.46
2018-10-05T09:28:54.592Z,48.25
2018-10-05T09:31:24.554Z,49.06
2018-10-05T09:33:54.452Z,47.97
2018-10-05T09:36:24.412Z,48.49
2018-10-05T09:38:54.400Z,47.59
2018-10-05T09:41:24.458Z,47.38
2018-10-05T09:43:54.523Z,46.85
2018-10-05T09:46:24.450Z,47.49
2018-10-05T09:48:54.441Z,47.97
2018-10-05T09:51:24.381Z,47.66
2018-10-05T09:53:54.284Z,46.51
2018-10-05T09:56:24.242Z,46.20
2018-10-05T09:58:54.203Z,46.76
2018-10-05T10:01:29.113Z,46.33
2018-10-05T10:03:59.074Z,45.79
2018-10-05T10:06:29.033Z,44.92
2018-10-05T10:08:59.106Z,44.85
2018-10-05T10:11:29.041Z,44.67
2018-10-05T10:13:59.096Z,45.39
2018-10-05T10:16:28.987Z,44.39
2018-10-05T10:18:58.953Z,45.86
2018-10-05T10:21:28.920Z,44.65
2018-10-05T10:23:58.890Z,43.90
2018-10-05T10:26:28.857Z,42.82
2018-10-05T10:28:58.945Z,43.48
2018-10-05T10:31:28.900Z,44.52
2018-10-05T10:33:58.856Z,44.12
2018-10-05T10:36:28.857Z,42.66
2018-10-05T10:38:58.833Z,42.21
2018-10-05T10:41:28.760Z,41.43
2018-10-05T10:43:58.720Z,41.27
2018-10-05T10:46:28.754Z,42.06
2018-10-05T10:48:58.734Z,40.79
2018-10-05T10:51:28.723Z,41.43
2018-10-05T10:53:58.675Z,40.86
2018-10-05T10:56:28.611Z,41.39
2018-10-05T10:58:58.545Z,40.25
2018-10-05T11:01:28.522Z,42.05
2018-10-05T11:03:58.535Z,41.41
2018-10-05T11:06:28.400Z,40.90
2018-10-05T11:08:58.310Z,39.42
2018-10-05T11:11:28.236Z,40.96
2018-10-05T11:13:58.143Z,40.33
2018-10-05T11:16:28.135Z,40.60
2018-10-05T11:18:58.037Z,39.99
2018-10-05T11:21:28.033Z,40.72
2018-10-05T11:23:57.956Z,40.98
2018-10-05T11:26:27.821Z,39.71
2018-10-05T11:28:57.774Z,39.85
2018-10-05T11:31:27.726Z,40.26
2018-10-05T11:33:57.709Z,40.53
2018-10-05T11:36:27.645Z,39.02
2018-10-05T11:38:57.572Z,38.58
2018-10-05T11:41:27.545Z,39.12
2018-10-05T11:43:57.458Z,38.83
2018-10-05T11:46:27.536Z,38.71
2018-10-05T11:48:57.420Z,38.64
2018-10-05T11:51:27.310Z,39.28
2018-10-05T11:53:57.263Z,38.88
2018-10-05T11:56:27.227Z,38.72
2018-10-05T11:58:57.145Z,37.79
2018-10-05T12:01:27.162Z,37.90
2018-10-05T12:03:57.148Z,38.00
2018-10-05T12:06:27.079Z,37.03
2018-10-05T12:08:57.264Z,37.40
2018-10-05T12:11:27.250Z,36.75
2018-10-05T12:13:57.174Z,36.34
2018-10-05T12:16:27.156Z,36.61
2018-10-05T12:18:57.128Z,37.07
2018-10-05T12:21:27.128Z,36.42
2018-10-05T12:23:57.039Z,36.67
2018-10-05T12:26:27.039Z,35.83
2018-10-05T12:28:57.025Z,36.46
2018-10-05T12:31:27.073Z,36.08
2018-10-05T12:33:56.985Z,36.16
2018-10-05T12:36:26.847Z,36.02
2018-10-05T12:38:56.801Z,36.52
2018-10-05T12:41:26.731Z,36.87
2018-10-05T12:43:56.591Z,35.73
2018-10-05T12:46:26.563Z,36.64
2018-10-05T12:48:56.519Z,36.29
2018-10-05T12:51:26.501Z,35.53
2018-10-05T12:53:56.418Z,34.73
2018-10-05T12:56:26.336Z,35.42
2018-10-05T12:58:56.324Z,34.07
2018-10-05T13:01:26.402Z,34.09
2018-10-05T13:03:56.332Z,34.73
2018-10-05T13:06:26.338Z,34.17
2018-10-05T13:08:56.294Z,33.03
2018-10-05T13:11:26.272Z,34.27
2018-10-05T13:13:56.195Z,33.96
2018-10-05T13:16:26.154Z,34.03
2018-10-05T13:18:56.029Z,34.76
2018-10-05T13:21:25.952Z,35.05
2018-10-05T13:23:55.846Z,34.20
2018-10-05T13:26:25.831Z,34.09
2018-10-05T13:28:55.811Z,34.74
2018-10-05T13:31:25.800Z,33.60
2018-10-05T13:33:55.839Z,33.77
2018-10-05T13:36:25.719Z,34.00
2018-10-05T13:38:57.301Z,34.92
2018-10-05T13:41:27.883Z,34.89
2018-10-05T13:43:57.806Z,34.50
2018-10-05T13:46:27.815Z,34.63
2018-10-05T13:48:57.739Z,35.13
2018-10-05T13:51:27.732Z,33.80
2018-10-05T13:53:57.620Z,33.42
2018-10-05T13:56:27.519Z,35.05
2018-10-05T13:58:57.996Z,35.19
2018-10-05T14:01:27.963Z,34.61
2018-10-05T14:03:57.972Z,33.91
2018-10-05T14:06:28.144Z,34.84
2018-10-05T14:08:58.118Z,34.86
2018-10-05T14:11:28.057Z,34.62
2018-10-05T14:13:58.013Z,34.16
2018-10-05T14:16:27.969Z,33.26
2018-10-05T14:18:58.148Z,32.87
2018-10-05T14:21:28.361Z,33.44
2018-10-05T14:23:58.315Z,34.46
2018-10-05T14:26:28.288Z,33.82
2018-10-05T14:28:58.261Z,34.95
2018-10-05T14:31:28.401Z,33.74
2018-10-05T14:33:58.391Z,34.02
2018-10-05T14:36:28.301Z,34.20
2018-10-05T14:38:58.278Z,34.11
2018-10-05T14:41:28.207Z,34.44
2018-10-05T14:43:58.174Z,34.17
2018-10-05T14:46:28.110Z,34.94
2018-10-05T14:48:58.093Z,33.92
2018-10-05T14:51:28.032Z,34.63
2018-10-05T14:53:57.961Z,33.91
2018-10-05T14:56:28.102Z,33.94
2018-10-05T14:58:58.065Z,34.65
2018-10-05T15:01:28.060Z,34.58
2018-10-05T15:03:58.034Z,35.31
2018-10-05T15:06:28.045Z,35.05
2018-10-05T15:08:58.035Z,35.21
2018-10-05T15:11:28.540Z,35.07
2018-10-05T15:13:58.505Z,35.69
2018-10-05T15:16:28.465Z,34.97
2018-10-05T15:18:58.427Z,35.94
2018-10-05T15:21:28.461Z,36.06
2018-10-05T15:23:58.521Z,35.18
2018-10-05T15:26:28.503Z,36.37
2018-10-05T15:28:58.461Z,35.70
2018-10-05T15:31:28.423Z,35.75
2018-10-05T15:33:58.354Z,36.93
2018-10-05T15:36:28.365Z,37.21
2018-10-05T15:38:58.397Z,37.63
2018-10-05T15:41:28.304Z,37.63
2018-10-05T15:43:58.303Z,37.18
2018-10-05T15:47:06.680Z,37.64
2018-10-05T15:49:37.183Z,37.80
2018-10-05T15:52:07.136Z,37.22
2018-10-05T15:54:37.700Z,38.57
2018-10-05T15:57:07.843Z,38.20
2018-10-05T15:59:38.183Z,38.24
2018-10-05T16:02:08.139Z,38.84
2018-10-05T16:04:38.980Z,39.64
2018-10-05T16:07:08.927Z,38.76
2018-10-05T16:09:38.895Z,39.97
2018-10-05T16:12:08.841Z,39.83
2018-10-05T16:14:39.640Z,40.51
2018-10-05T16:17:09.620Z,40.05
2018-10-05T16:19:39.864Z,40.64
2018-10-05T16:22:09.991Z,40.64
2018-10-05T16:24:44.034Z,41.12
2018-10-05T16:27:14.460Z,41.07
2018-10-05T16:29:44.385Z,42.41
2018-10-05T16:32:14.461Z,42.67
2018-10-05T16:34:44.373Z,42.99
2018-10-05T16:37:14.440Z,43.56
2018-10-05T16:42:06.307Z,43.97
2018-10-05T16:44:36.283Z,44.20
2018-10-05T16:47:06.329Z,44.72
2018-10-05T16:49:36.303Z,45.23
2018-10-05T16:52:06.289Z,45.63
2018-10-05T16:54:36.287Z,45.82
2018-10-05T16:57:06.271Z,46.62
2018-10-05T16:59:36.191Z,47.57
2018-10-05T17:02:07.146Z,47.75
2018-10-05T17:04:37.005Z,47.26
2018-10-05T17:07:07.160Z,48.67
2018-10-05T17:09:37.175Z,49.30
2018-10-05T17:12:07.114Z,48.24
2018-10-05T17:14:37.076Z,48.87
2018-10-05T17:17:07.150Z,48.54
2018-10-05T17:19:37.148Z,48.79
2018-10-05T17:22:07.157Z,49.71
2018-10-05T17:24:37.158Z,50.34
2018-10-05T17:27:07.527Z,50.36
2018-10-05T17:29:37.915Z,51.45
2018-10-05T17:32:07.895Z,50.86
2018-10-05T17:34:38.399Z,50.54
2018-10-05T17:37:10.399Z,51.17
2018-10-05T17:39:40.361Z,50.98
2018-10-05T17:42:10.963Z,51.46
2018-10-05T17:44:40.947Z,51.92
2018-10-05T17:47:10.853Z,51.39
2018-10-05T17:49:40.866Z,51.60
2018-10-05T17:52:10.714Z,51.56
2018-10-05T17:54:40.727Z,51.19
2018-10-05T17:57:10.692Z,51.59
2018-10-05T17:59:40.680Z,51.57
2018-10-05T18:02:10.618Z,52.95
2018-10-05T18:04:40.586Z,52.47
2018-10-05T18:07:10.565Z,53.18
2018-10-05T18:09:40.565Z,52.32
2018-10-05T18:12:10.498Z,52.13
2018-10-05T18:14:40.684Z,52.17
2018-10-05T18:17:10.575Z,52.59
2018-10-05T18:19:41.344Z,52.43
2018-10-05T18:22:11.362Z,52.47
2018-10-05T18:24:41.352Z,52.30
2018-10-05T18:27:11.350Z,52.31
2018-10-05T18:29:41.305Z,51.96
2018-10-05T18:32:11.848Z,52.54
2018-10-05T18:34:41.786Z,52.49
2018-10-05T18:37:11.713Z,52.89
2018-10-05T18:39:41.706Z,52.53
2018-10-05T18:42:11.707Z,53.20
2018-10-05T18:44:41.787Z,52.96
2018-10-05T18:47:11.749Z,52.89
2018-10-05T18:49:41.734Z,52.80
2018-10-05T18:52:11.702Z,52.95
2018-10-05T18:54:41.695Z,52.26
2018-10-05T18:57:19.359Z,54.21
2018-10-05T18:59:49.536Z,53.37
2018-10-05T19:02:20.063Z,52.91
2018-10-05T19:04:50.142Z,53.28
2018-10-05T19:07:20.122Z,53.01
2018-10-05T19:09:50.118Z,53.81
2018-10-05T19:12:20.005Z,53.53
2018-10-05T19:14:50.381Z,53.43
2018-10-05T19:17:20.339Z,54.05
2018-10-05T19:19:50.988Z,53.70
2018-10-05T19:22:20.904Z,54.27
2018-10-05T19:24:50.882Z,53.82
2018-10-05T19:27:20.766Z,54.05
2018-10-05T19:29:50.859Z,53.99
2018-10-05T19:32:20.890Z,54.64
2018-10-05T19:34:50.887Z,54.76
2018-10-05T19:37:20.889Z,54.60
2018-10-05T19:39:50.960Z,54.29
2018-10-05T19:42:20.992Z,54.54
2018-10-05T19:44:51.025Z,54.59
2018-10-05T19:47:20.998Z,55.78
2018-10-05T19:49:51.039Z,55.22
2018-10-05T19:52:21.067Z,55.07
2018-10-05T19:54:51.115Z,55.02
2018-10-05T19:57:21.128Z,55.01
2018-10-05T19:59:51.200Z,55.45
2018-10-05T20:02:21.145Z,55.64
2018-10-05T20:04:51.176Z,56.22
2018-10-05T20:07:21.204Z,56.19
2018-10-05T20:09:51.390Z,56.12
2018-10-05T20:12:21.369Z,55.79
2018-10-05T20:14:51.430Z,55.93
2018-10-05T20:17:21.383Z,56.61
2018-10-05T20:19:51.346Z,56.94
2018-10-05T20:22:21.322Z,57.18
2018-10-05T20:24:51.385Z,56.89
2018-10-05T20:27:21.431Z,56.90
2018-10-05T20:29:51.468Z,57.15
2018-10-05T20:32:21.510Z,57.07
2018-10-05T20:34:51.480Z,57.76
2018-10-05T20:37:21.581Z,57.63
2018-10-05T20:39:51.487Z,57.80
2018-10-05T20:42:21.494Z,57.53
2018-10-05T20:44:51.500Z,58.53
2018-10-05T20:47:21.496Z,58.02
2018-10-05T20:49:51.471Z,58.12
2018-10-05T20:52:21.498Z,58.46
2018-10-05T20:54:51.469Z,59.29
2018-10-05T20:57:21.520Z,59.37
2018-10-05T20:59:51.487Z,58.79
2018-10-05T21:02:21.498Z,59.56
2018-10-05T21:04:51.509Z,59.05
2018-10-05T21:07:21.495Z,59.60
2018-10-05T21:09:52.083Z,59.75
2018-10-05T21:12:22.096Z,59.84
2018-10-05T21:14:52.081Z,60.14
2018-10-05T21:17:22.126Z,60.31
2018-10-05T21:19:52.140Z,60.23
2018-10-05T21:22:22.158Z,59.98
2018-10-05T21:24:52.163Z,60.19
2018-10-05T21:27:22.152Z,60.92
2018-10-05T21:29:52.192Z,60.42
2018-10-05T21:32:22.402Z,60.64
2018-10-05T21:34:52.577Z,60.37
2018-10-05T21:37:23.566Z,61.32
2018-10-05T21:39:53.571Z,60.37
2018-10-05T21:42:23.581Z,60.97
2018-10-05T21:44:53.614Z,61.74
2018-10-05T21:47:25.974Z,61.26
2018-10-05T21:49:55.958Z,61.37
2018-10-05T21:52:26.033Z,61.78
2018-10-05T21:54:55.975Z,61.73
2018-10-05T21:57:25.906Z,62.21
2018-10-05T21:59:55.883Z,61.53
2018-10-05T22:02:29.881Z,62.54
2018-10-05T22:04:59.829Z,61.86
2018-10-05T22:07:29.789Z,62.43
2018-10-05T22:09:59.719Z,62.60
2018-10-05T22:12:30.271Z,62.71
2018-10-05T22:15:00.191Z,62.45
2018-10-05T22:17:30.174Z,62.84
2018-10-05T22:20:00.218Z,62.72
2018-10-05T22:22:30.246Z,63.22
2018-10-05T22:25:00.201Z,63.07
2018-10-05T22:27:30.164Z,63.24
2018-10-05T22:30:00.023Z,63.73
2018-10-05T22:32:30.011Z,63.33
2018-10-05T22:35:00.031Z,63.41
2018-10-05T22:37:29.951Z,64.12
2018-10-05T22:39:59.869Z,64.17
2018-10-05T22:42:29.883Z,64.09
2018-10-05T22:44:59.883Z,64.23
2018-10-05T22:47:29.864Z,64.12
2018-10-05T22:49:59.859Z,64.36
2018-10-05T22:52:29.968Z,64.27
2018-10-05T22:55:01.823Z,63.77
2018-10-05T22:57:33.584Z,64.42
2018-10-05T23:00:04.374Z,64.53
2018-10-05T23:02:34.375Z,64.80
2018-10-05T23:05:04.388Z,64.09
2018-10-05T23:07:34.355Z,64.15
2018-10-05T23:10:04.366Z,64.35
2018-10-05T23:12:34.355Z,64.40
2018-10-05T23:15:04.614Z,65.42
2018-10-05T23:17:34.589Z,64.81
2018-10-05T23:20:04.633Z,64.62
2018-10-05T23:22:35.107Z,65.22
2018-10-05T23:25:05.959Z,64.89
2018-10-05T23:27:35.920Z,64.76
2018-10-05T23:30:05.894Z,64.80
2018-10-05T23:32:35.946Z,64.87
2018-10-05T23:35:07.648Z,65.55
2018-10-05T23:37:38.661Z,65.31
2018-10-05T23:40:08.592Z,64.82
2018-10-05T23:42:38.621Z,65.48
2018-10-05T23:45:08.602Z,65.71
2018-10-05T23:47:39.440Z,65.31
2018-10-05T23:50:09.426Z,65.38
2018-10-05T23:52:47.517Z,65.83
2018-10-05T23:55:18.619Z,65.71
2018-10-05T23:57:48.949Z,66.36
